Time;durP1;ratioP1;P1;durP2;ratioP2;P2;SDS_P1;SDS_P2;PMS_P1;PMS_P2;Temp;Humidity;BMP_temperature;BMP_pressure;BME280_temperature;BME280_humidity;BME280_pressure;Samples;Min_cycle;Max_cycle;Signal;HPM_P1;HPM_P2
2023/01/20 00:01:13;;;;;;;41.33;21.08;;;2.80;99.90;;;;;;5094300;28;20178;-53
2023/01/20 00:03:39;;;;;;;34.85;20.48;;;2.70;99.90;;;;;;5094231;28;20170;-54
2023/01/20 00:06:05;;;;;;;35.03;21.30;;;2.70;99.90;;;;;;5094622;28;20519;-53
2023/01/20 00:08:31;;;;;;;38.93;21.50;;;2.70;99.90;;;;;;5094286;28;20174;-54
2023/01/20 00:10:57;;;;;;;37.07;21.03;;;2.60;99.90;;;;;;5076028;28;20217;-54
2023/01/20 00:13:23;;;;;;;38.88;21.67;;;2.60;99.90;;;;;;5093984;28;20181;-54
2023/01/20 00:15:48;;;;;;;35.10;20.70;;;2.60;99.90;;;;;;5094127;28;20257;-54
2023/01/20 00:18:14;;;;;;;42.43;24.70;;;2.60;99.90;;;;;;5093858;28;20219;-54
2023/01/20 00:20:41;;;;;;;40.25;21.92;;;2.70;99.90;;;;;;5094204;28;20192;-54
2023/01/20 00:23:06;;;;;;;40.60;22.17;;;2.60;99.90;;;;;;5094388;28;20694;-54
2023/01/20 00:25:35;;;;;;;41.77;21.87;;;2.60;99.90;;;;;;5094032;28;20178;-54
2023/01/20 00:28:01;;;;;;;41.90;21.77;;;2.70;99.90;;;;;;5093923;28;20187;-54
2023/01/20 00:30:26;;;;;;;35.80;21.80;;;2.60;99.90;;;;;;5093674;28;20296;-53
2023/01/20 00:32:53;;;;;;;38.13;23.73;;;2.50;99.90;;;;;;5093696;28;20185;-54
2023/01/20 00:35:18;;;;;;;39.20;21.40;;;2.50;99.90;;;;;;5093077;28;20327;-54
2023/01/20 00:37:44;;;;;;;40.73;21.97;;;2.50;99.90;;;;;;5093910;28;20643;-54
2023/01/20 00:40:10;;;;;;;44.92;23.65;;;2.60;99.90;;;;;;5093845;28;20185;-52
2023/01/20 00:42:36;;;;;;;40.40;23.60;;;2.60;99.90;;;;;;5093862;28;20646;-54
2023/01/20 00:45:02;;;;;;;42.83;23.95;;;2.70;99.90;;;;;;5093570;28;20196;-54
2023/01/20 00:47:27;;;;;;;43.13;24.07;;;2.60;99.90;;;;;;5093506;28;20265;-54
2023/01/20 00:49:53;;;;;;;44.63;24.88;;;2.50;99.90;;;;;;5093793;28;20246;-56
2023/01/20 00:52:19;;;;;;;46.13;22.40;;;2.40;99.90;;;;;;5093465;28;20200;-54
2023/01/20 00:54:44;;;;;;;42.53;22.90;;;2.40;99.90;;;;;;5093450;28;20185;-54
2023/01/20 00:57:11;;;;;;;46.87;23.63;;;2.40;99.90;;;;;;5093501;28;20178;-54
2023/01/20 00:59:36;;;;;;;44.37;23.30;;;2.40;99.90;;;;;;5093429;28;20202;-53
2023/01/20 01:02:03;;;;;;;43.83;23.73;;;2.40;99.90;;;;;;5093577;28;20525;-54
2023/01/20 01:04:28;;;;;;;46.78;25.08;;;2.50;99.90;;;;;;5093277;28;20174;-55
2023/01/20 01:06:54;;;;;;;44.23;25.47;;;2.40;99.90;;;;;;5093484;28;20181;-55
2023/01/20 01:09:20;;;;;;;44.40;23.70;;;2.30;99.90;;;;;;5093549;28;20178;-54
2023/01/20 01:11:47;;;;;;;42.97;24.20;;;2.30;99.90;;;;;;5093254;28;20573;-54
2023/01/20 01:14:13;;;;;;;47.20;24.80;;;2.40;99.90;;;;;;5093398;28;20581;-54
2023/01/20 01:16:38;;;;;;;40.33;23.30;;;2.30;99.90;;;;;;5093222;28;20177;-54
2023/01/20 01:19:04;;;;;;;43.77;24.80;;;2.30;99.90;;;;;;5093684;28;20176;-54
2023/01/20 01:21:30;;;;;;;43.23;24.17;;;2.30;99.90;;;;;;5093350;28;20180;-53
2023/01/20 01:23:56;;;;;;;47.43;24.47;;;2.20;99.90;;;;;;5093628;28;20167;-54
2023/01/20 01:26:21;;;;;;;43.58;22.58;;;2.20;99.90;;;;;;5093188;28;20199;-54
2023/01/20 01:28:48;;;;;;;44.33;24.10;;;2.20;99.90;;;;;;5093073;28;20177;-54
2023/01/20 01:31:15;;;;;;;43.63;24.30;;;2.30;99.90;;;;;;5092998;28;20212;-55
2023/01/20 01:33:41;;;;;;;44.92;25.15;;;2.30;99.90;;;;;;5093031;28;20243;-55
2023/01/20 01:36:11;;;;;;;46.23;23.30;;;2.30;99.90;;;;;;5093256;28;20185;-54
2023/01/20 01:38:37;;;;;;;43.57;24.03;;;2.30;99.90;;;;;;5093150;28;20170;-54
2023/01/20 01:41:02;;;;;;;45.67;23.83;;;2.40;99.90;;;;;;5093095;28;20188;-54
2023/01/20 01:43:31;;;;;;;46.70;23.83;;;2.40;99.90;;;;;;5074944;28;20238;-53
2023/01/20 01:45:57;;;;;;;43.47;23.07;;;2.50;99.90;;;;;;5094355;28;20174;-54
2023/01/20 01:48:34;;;;;;;42.17;23.47;;;2.40;99.90;;;;;;5097167;28;20174;-54
2023/01/20 01:51:00;;;;;;;45.43;24.47;;;2.50;99.90;;;;;;5096965;28;20209;-54
2023/01/20 01:53:29;;;;;;;46.63;23.53;;;2.40;99.90;;;;;;5096898;28;20181;-54
2023/01/20 01:56:01;;;;;;;43.97;25.07;;;2.50;99.90;;;;;;5096829;28;20169;-53
2023/01/20 01:58:33;;;;;;;44.73;22.17;;;2.40;99.90;;;;;;5096607;28;20561;-54
2023/01/20 02:00:58;;;;;;;42.63;23.48;;;2.20;99.90;;;;;;5096912;28;20221;-54
2023/01/20 02:03:30;;;;;;;44.07;23.13;;;2.20;99.90;;;;;;5096782;28;20178;-54
2023/01/20 02:05:57;;;;;;;40.60;22.63;;;2.20;99.90;;;;;;5096704;28;20697;-54
2023/01/20 02:08:24;;;;;;;37.85;22.30;;;2.40;99.90;;;;;;5096536;28;20181;-53
2023/01/20 02:10:50;;;;;;;41.10;23.43;;;2.30;99.90;;;;;;5096292;28;20217;-53
2023/01/20 02:13:16;;;;;;;42.60;23.77;;;2.30;99.90;;;;;;5096518;28;20505;-54
2023/01/20 02:16:03;;;;;;;44.07;24.40;;;2.20;99.90;;;;;;5096777;28;20178;-54
2023/01/20 02:18:46;;;;;;;48.67;25.03;;;2.20;99.90;;;;;;5078332;28;20199;-54
2023/01/20 02:21:48;;;;;;;47.70;25.27;;;2.10;99.90;;;;;;5096641;28;20668;-52
2023/01/20 02:24:55;;;;;;;40.23;22.07;;;2.00;99.90;;;;;;5096351;28;20177;-53
2023/01/20 02:27:47;;;;;;;45.80;24.50;;;2.00;99.90;;;;;;5096253;28;20177;-52
2023/01/20 02:30:25;;;;;;;48.33;24.57;;;2.00;99.90;;;;;;5078689;28;20232;-54
2023/01/20 02:33:05;;;;;;;46.37;24.40;;;2.10;99.90;;;;;;5096247;28;20672;-55
2023/01/20 02:35:43;;;;;;;45.00;24.87;;;2.10;99.90;;;;;;5096076;28;20634;-54
2023/01/20 02:38:31;;;;;;;48.63;25.53;;;2.10;99.90;;;;;;5095985;28;20264;-54
2023/01/20 02:41:14;;;;;;;42.47;23.50;;;1.90;99.90;;;;;;5095985;28;20599;-54
2023/01/20 02:44:00;;;;;;;45.63;23.93;;;2.00;99.90;;;;;;5096172;28;20190;-54
2023/01/20 02:46:39;;;;;;;43.40;22.07;;;1.90;99.90;;;;;;5095810;28;20201;-54
2023/01/20 02:49:18;;;;;;;47.93;21.90;;;1.90;99.90;;;;;;5095972;28;20175;-54
2023/01/20 02:51:51;;;;;;;47.13;24.37;;;1.90;99.90;;;;;;5095794;28;20673;-53
2023/01/20 02:54:20;;;;;;;43.70;23.97;;;1.90;99.90;;;;;;5095692;28;20638;-55
2023/01/20 02:56:48;;;;;;;47.67;23.63;;;1.90;99.90;;;;;;5095083;28;20534;-53
2023/01/20 02:59:18;;;;;;;47.13;23.93;;;1.90;99.90;;;;;;5095106;28;20532;-54
2023/01/20 03:01:54;;;;;;;43.90;23.60;;;1.90;99.90;;;;;;5095738;28;20267;-53
2023/01/20 03:04:28;;;;;;;44.73;23.87;;;2.00;99.90;;;;;;5095584;28;20226;-53
2023/01/20 03:06:56;;;;;;;45.07;24.07;;;2.10;99.90;;;;;;5095515;28;20172;-55
2023/01/20 03:09:29;;;;;;;47.33;24.33;;;1.90;99.90;;;;;;5095392;28;20170;-54
2023/01/20 03:12:03;;;;;;;45.90;23.43;;;1.90;99.90;;;;;;5095450;28;20779;-55
2023/01/20 03:14:29;;;;;;;44.40;21.97;;;1.90;99.90;;;;;;5095474;28;20181;-56
2023/01/20 03:16:55;;;;;;;41.40;22.80;;;1.80;99.90;;;;;;5095322;28;20205;-55
2023/01/20 03:19:21;;;;;;;41.50;22.60;;;1.70;99.90;;;;;;5095130;28;20185;-55
2023/01/20 03:21:47;;;;;;;42.20;22.77;;;1.80;99.90;;;;;;5095110;28;20182;-54
2023/01/20 03:24:13;;;;;;;43.27;24.33;;;1.80;99.90;;;;;;5095283;28;20168;-57
2023/01/20 03:26:38;;;;;;;44.10;22.10;;;1.80;99.90;;;;;;5095208;28;20653;-55
2023/01/20 03:29:08;;;;;;;42.77;22.33;;;1.80;99.90;;;;;;5095380;28;20639;-55
2023/01/20 03:31:49;;;;;;;41.23;22.67;;;1.60;99.90;;;;;;5094969;28;20681;-56
2023/01/20 03:34:19;;;;;;;43.50;24.50;;;1.70;99.90;;;;;;5094881;28;20303;-55
2023/01/20 03:36:45;;;;;;;47.97;24.77;;;1.70;99.90;;;;;;5095088;28;20178;-54
2023/01/20 03:39:11;;;;;;;43.70;23.43;;;1.70;99.90;;;;;;5095001;28;20171;-54
2023/01/20 03:41:58;;;;;;;46.17;23.33;;;1.80;99.90;;;;;;5059992;28;20189;-53
2023/01/20 03:44:30;;;;;;;38.47;22.23;;;1.80;99.90;;;;;;5094649;28;20189;-55
2023/01/20 03:47:26;;;;;;;40.07;21.83;;;1.70;99.90;;;;;;5094920;28;20166;-55
2023/01/20 03:50:11;;;;;;;44.37;23.47;;;1.70;99.90;;;;;;5094734;28;20173;-54
2023/01/20 03:52:59;;;;;;;42.13;22.47;;;1.70;99.90;;;;;;5094583;28;20268;-53
2023/01/20 03:55:24;;;;;;;43.23;23.13;;;1.80;99.90;;;;;;5094753;28;20181;-54
2023/01/20 03:58:02;;;;;;;42.93;23.67;;;1.90;99.90;;;;;;5094580;28;20166;-55
2023/01/20 04:00:30;;;;;;;41.73;22.43;;;1.90;99.90;;;;;;5094456;28;20181;-55
2023/01/20 04:02:59;;;;;;;40.00;20.83;;;1.90;99.90;;;;;;5094630;28;20532;-54
2023/01/20 04:05:26;;;;;;;39.47;20.30;;;1.90;99.90;;;;;;5094271;28;20171;-52
2023/01/20 04:07:56;;;;;;;37.97;20.33;;;1.90;99.90;;;;;;5094429;28;20238;-54
2023/01/20 04:10:26;;;;;;;36.97;19.90;;;1.90;99.90;;;;;;5094223;28;20202;-55
2023/01/20 04:12:51;;;;;;;37.40;20.37;;;1.90;99.90;;;;;;5094416;28;20235;-54
2023/01/20 04:15:19;;;;;;;36.03;20.27;;;1.90;99.90;;;;;;5094248;28;20634;-54
2023/01/20 04:17:44;;;;;;;35.90;20.17;;;1.90;99.90;;;;;;5094149;28;20207;-54
2023/01/20 04:20:13;;;;;;;37.67;21.23;;;2.00;99.90;;;;;;5094287;28;20824;-55
2023/01/20 04:22:51;;;;;;;36.37;20.73;;;1.90;99.90;;;;;;5094213;28;20256;-55
2023/01/20 04:25:29;;;;;;;37.97;20.00;;;2.00;99.90;;;;;;5094180;28;20172;-55
2023/01/20 04:27:54;;;;;;;34.13;19.80;;;2.00;99.90;;;;;;5055842;28;20540;-53
2023/01/20 04:30:20;;;;;;;32.70;19.37;;;2.10;99.90;;;;;;5073753;28;20175;-54
2023/01/20 04:32:46;;;;;;;33.67;18.57;;;2.10;99.90;;;;;;5073812;28;20182;-55
2023/01/20 04:35:14;;;;;;;35.67;19.13;;;2.00;99.90;;;;;;5073649;28;20706;-53
2023/01/20 04:37:40;;;;;;;35.77;19.13;;;2.00;99.90;;;;;;5073607;28;20189;-55
2023/01/20 04:40:06;;;;;;;35.27;18.03;;;2.10;99.90;;;;;;5073527;28;20174;-54
2023/01/20 04:42:32;;;;;;;35.57;18.97;;;2.00;99.90;;;;;;5073470;28;20713;-56
2023/01/20 04:44:57;;;;;;;34.63;18.40;;;2.10;99.90;;;;;;5073257;28;20194;-55
2023/01/20 04:47:23;;;;;;;32.60;19.00;;;2.20;99.90;;;;;;5073336;28;20189;-54
2023/01/20 04:49:49;;;;;;;32.20;18.70;;;2.20;99.90;;;;;;5073524;28;20178;-55
2023/01/20 04:52:16;;;;;;;32.20;17.70;;;2.10;99.90;;;;;;5073482;28;20268;-56
2023/01/20 04:54:41;;;;;;;35.07;19.00;;;2.10;99.90;;;;;;5073479;28;20174;-54
2023/01/20 04:57:07;;;;;;;31.20;18.50;;;2.10;99.90;;;;;;5073281;28;20185;-54
2023/01/20 04:59:33;;;;;;;29.70;17.57;;;2.20;99.90;;;;;;5073186;28;20269;-54
2023/01/20 05:01:58;;;;;;;31.67;18.33;;;2.20;99.90;;;;;;5073427;28;20540;-54
2023/01/20 05:04:24;;;;;;;30.63;18.40;;;2.30;99.90;;;;;;5073208;28;20203;-54
2023/01/20 05:06:50;;;;;;;29.13;17.43;;;2.20;99.90;;;;;;5073332;28;20231;-55
2023/01/20 05:09:16;;;;;;;32.57;18.00;;;2.20;99.90;;;;;;5073072;28;20186;-55
2023/01/20 05:11:43;;;;;;;27.90;16.47;;;2.20;99.90;;;;;;5073116;28;20213;-53
2023/01/20 05:14:10;;;;;;;27.90;17.67;;;2.20;99.90;;;;;;5072950;28;20200;-53
2023/01/20 05:16:35;;;;;;;30.90;18.02;;;2.30;99.90;;;;;;5073351;28;20201;-55
2023/01/20 05:19:01;;;;;;;30.90;16.70;;;2.30;99.90;;;;;;5073251;28;20634;-54
2023/01/20 05:21:27;;;;;;;29.27;18.20;;;2.20;99.90;;;;;;5075497;28;20586;-54
2023/01/20 05:23:53;;;;;;;27.00;16.23;;;2.20;99.90;;;;;;5077312;28;20177;-55
2023/01/20 05:26:21;;;;;;;29.43;16.63;;;2.20;99.90;;;;;;5059327;28;20373;-55
2023/01/20 05:28:46;;;;;;;27.70;16.33;;;2.20;99.90;;;;;;5076987;28;20182;-54
2023/01/20 05:31:12;;;;;;;30.90;17.40;;;2.30;99.90;;;;;;5059643;28;20217;-54
2023/01/20 05:33:38;;;;;;;30.00;17.53;;;2.30;99.90;;;;;;5077109;28;20563;-53
2023/01/20 05:36:08;;;;;;;28.73;16.33;;;2.40;99.90;;;;;;5076973;28;20208;-53
2023/01/20 05:38:34;;;;;;;31.30;17.73;;;2.30;99.90;;;;;;5077036;28;20181;-54
2023/01/20 05:41:00;;;;;;;26.93;16.57;;;2.30;99.90;;;;;;5076745;28;20194;-54
2023/01/20 05:43:26;;;;;;;31.43;18.37;;;2.30;99.90;;;;;;5076611;28;20631;-54
2023/01/20 05:45:52;;;;;;;31.03;17.57;;;2.30;99.90;;;;;;5077210;28;20178;-53
2023/01/20 05:48:18;;;;;;;32.47;17.80;;;2.30;99.90;;;;;;5076831;28;20182;-54
2023/01/20 05:50:44;;;;;;;30.23;18.40;;;2.30;99.90;;;;;;5076759;28;20697;-53
2023/01/20 05:53:09;;;;;;;27.03;17.43;;;2.30;99.90;;;;;;5076654;28;20182;-56
2023/01/20 05:55:35;;;;;;;32.30;18.30;;;2.40;99.90;;;;;;5076534;28;20261;-54
2023/01/20 05:58:02;;;;;;;33.90;18.63;;;2.30;99.90;;;;;;5091142;28;20196;-53
2023/01/20 06:00:28;;;;;;;28.50;17.53;;;2.30;99.90;;;;;;5096678;28;20189;-56
2023/01/20 06:02:54;;;;;;;30.43;17.43;;;2.30;99.90;;;;;;5096905;28;20182;-56
2023/01/20 06:05:19;;;;;;;31.07;18.57;;;2.30;99.90;;;;;;5096797;28;20188;-55
2023/01/20 06:07:45;;;;;;;34.80;18.63;;;2.30;99.90;;;;;;5096873;28;20527;-55
2023/01/20 06:10:11;;;;;;;35.20;22.77;;;2.30;99.90;;;;;;5096828;28;20624;-56
2023/01/20 06:12:37;;;;;;;43.30;23.73;;;2.40;99.90;;;;;;5096422;28;20185;-55
2023/01/20 06:15:03;;;;;;;38.60;24.77;;;2.40;99.90;;;;;;5096463;28;20224;-55
2023/01/20 06:17:29;;;;;;;43.37;22.87;;;2.30;99.90;;;;;;5096528;28;20180;-52
2023/01/20 06:19:55;;;;;;;36.43;20.77;;;2.40;99.90;;;;;;5096566;28;20261;-53
2023/01/20 06:22:20;;;;;;;35.67;20.20;;;2.30;99.90;;;;;;5096369;28;20170;-55
2023/01/20 06:24:46;;;;;;;34.40;19.40;;;2.20;99.90;;;;;;5078345;28;20181;-54
2023/01/20 06:27:12;;;;;;;35.00;19.97;;;2.20;99.90;;;;;;5096185;28;20166;-54
2023/01/20 06:29:38;;;;;;;30.93;19.33;;;2.30;99.90;;;;;;5096428;28;20573;-54
2023/01/20 06:32:04;;;;;;;37.10;20.20;;;2.10;99.90;;;;;;5093408;28;20232;-55
2023/01/20 06:34:30;;;;;;;36.33;18.60;;;2.10;99.90;;;;;;5095929;28;20229;-54
2023/01/20 06:36:56;;;;;;;34.53;18.73;;;2.10;99.90;;;;;;5096067;28;20178;-54
2023/01/20 06:39:21;;;;;;;30.17;17.47;;;2.20;99.90;;;;;;5096002;28;20178;-54
2023/01/20 06:41:47;;;;;;;32.83;16.77;;;2.20;99.90;;;;;;5095862;28;20520;-55
2023/01/20 06:44:14;;;;;;;31.07;18.23;;;2.00;99.90;;;;;;5077631;28;20197;-53
2023/01/20 06:46:40;;;;;;;28.97;16.93;;;1.90;99.90;;;;;;5095964;28;20177;-54
2023/01/20 06:49:05;;;;;;;34.60;18.13;;;1.90;99.90;;;;;;5095905;28;20184;-54
2023/01/20 06:51:32;;;;;;;31.90;18.60;;;2.00;99.90;;;;;;5095784;28;20620;-55
2023/01/20 06:53:58;;;;;;;33.73;19.10;;;2.10;99.90;;;;;;5095804;28;20205;-54
2023/01/20 06:56:24;;;;;;;36.77;19.17;;;2.00;99.90;;;;;;5095536;28;20550;-55
2023/01/20 06:58:50;;;;;;;32.93;18.67;;;2.20;99.90;;;;;;5077646;28;20527;-53
2023/01/20 07:01:25;;;;;;;36.43;20.03;;;2.20;99.90;;;;;;5095630;28;20269;-54
2023/01/20 07:03:51;;;;;;;34.83;18.30;;;2.40;99.90;;;;;;5095534;28;20299;-55
2023/01/20 07:06:30;;;;;;;34.13;19.53;;;2.30;99.90;;;;;;5095608;28;20234;-55
2023/01/20 07:08:57;;;;;;;38.57;21.27;;;2.30;99.90;;;;;;5095373;28;20173;-54
2023/01/20 07:11:23;;;;;;;32.83;19.77;;;2.30;99.90;;;;;;5095657;28;20563;-55
2023/01/20 07:13:48;;;;;;;36.63;19.93;;;2.30;99.90;;;;;;5095289;28;20175;-54
2023/01/20 07:16:15;;;;;;;34.57;20.33;;;2.40;99.90;;;;;;5077395;28;20511;-54
2023/01/20 07:18:41;;;;;;;36.30;21.50;;;2.50;99.90;;;;;;5095544;28;20639;-55
2023/01/20 07:21:10;;;;;;;35.93;20.63;;;2.40;99.90;;;;;;5076993;28;20543;-53
2023/01/20 07:23:35;;;;;;;37.23;21.00;;;2.50;99.90;;;;;;5095324;28;20165;-54
2023/01/20 07:26:04;;;;;;;35.90;20.43;;;2.50;99.90;;;;;;5077168;28;20207;-54
2023/01/20 07:28:31;;;;;;;32.00;19.43;;;2.50;99.90;;;;;;5095159;28;20185;-55
2023/01/20 07:31:09;;;;;;;34.40;19.90;;;2.60;99.90;;;;;;5095052;28;20212;-54
2023/01/20 07:33:36;;;;;;;33.43;18.03;;;2.60;99.90;;;;;;5094898;28;20177;-55
2023/01/20 07:36:02;;;;;;;31.47;18.57;;;2.60;99.90;;;;;;5094811;28;20220;-54
2023/01/20 07:38:28;;;;;;;31.77;18.27;;;2.60;99.90;;;;;;5095186;28;20270;-55
2023/01/20 07:41:02;;;;;;;32.37;18.90;;;2.60;99.90;;;;;;5095207;28;20184;-55
2023/01/20 07:43:28;;;;;;;32.30;18.10;;;2.70;99.90;;;;;;5094667;28;20188;-53
2023/01/20 07:45:59;;;;;;;32.63;18.97;;;2.60;99.90;;;;;;5076645;28;20188;-55
2023/01/20 07:48:25;;;;;;;28.27;17.55;;;2.70;99.90;;;;;;5094609;28;20166;-56
2023/01/20 07:51:02;;;;;;;31.63;17.48;;;2.70;99.90;;;;;;5094700;28;20221;-55
2023/01/20 07:53:49;;;;;;;34.47;16.95;;;2.70;99.90;;;;;;5094719;28;20202;-56
2023/01/20 07:56:18;;;;;;;29.77;16.95;;;2.70;99.90;;;;;;5094477;28;20188;-56
2023/01/20 07:58:44;;;;;;;30.55;17.58;;;2.70;99.90;;;;;;5094352;28;20528;-55
2023/01/20 08:01:13;;;;;;;31.37;18.43;;;2.70;99.90;;;;;;5094640;28;20174;-55
2023/01/20 08:03:38;;;;;;;35.43;19.57;;;2.80;99.90;;;;;;5094405;28;20515;-56
2023/01/20 08:06:06;;;;;;;31.50;18.83;;;2.80;99.90;;;;;;5094384;28;20260;-54
2023/01/20 08:08:32;;;;;;;31.40;18.60;;;2.80;99.90;;;;;;5094337;28;20638;-55
2023/01/20 08:11:00;;;;;;;27.90;17.30;;;2.80;99.90;;;;;;5094157;28;20208;-55
2023/01/20 08:13:26;;;;;;;31.13;17.90;;;2.90;99.90;;;;;;5094668;28;20173;-55
2023/01/20 08:15:52;;;;;;;27.67;16.87;;;2.80;99.90;;;;;;5076108;28;20178;-56
2023/01/20 08:18:17;;;;;;;26.00;16.35;;;2.90;99.90;;;;;;5094255;28;20578;-54
2023/01/20 08:20:43;;;;;;;30.35;17.90;;;2.80;99.90;;;;;;5094051;28;20261;-55
2023/01/20 08:23:09;;;;;;;25.40;15.50;;;2.90;99.90;;;;;;5094043;28;20642;-56
2023/01/20 08:25:34;;;;;;;27.25;16.23;;;2.80;99.90;;;;;;5075884;28;20177;-55
2023/01/20 08:28:00;;;;;;;28.60;16.10;;;2.90;99.90;;;;;;5093899;28;20201;-55
2023/01/20 08:30:26;;;;;;;26.63;15.43;;;2.90;99.90;;;;;;5093888;28;20185;-55
2023/01/20 08:32:52;;;;;;;25.75;15.48;;;2.80;99.90;;;;;;5093787;28;20540;-55
2023/01/20 08:35:17;;;;;;;28.80;15.63;;;2.80;99.90;;;;;;5093895;28;20173;-54
2023/01/20 08:37:43;;;;;;;28.05;15.38;;;2.90;99.90;;;;;;5093902;28;20638;-55
2023/01/20 08:40:10;;;;;;;24.38;13.85;;;3.00;99.90;;;;;;5093716;28;20182;-56
2023/01/20 08:42:36;;;;;;;24.50;14.48;;;3.10;99.90;;;;;;5093588;28;20181;-54
2023/01/20 08:45:04;;;;;;;25.45;14.07;;;3.10;99.90;;;;;;5094007;28;20189;-54
2023/01/20 08:47:30;;;;;;;23.57;13.10;;;3.00;99.90;;;;;;5093780;28;20176;-55
2023/01/20 08:49:55;;;;;;;25.92;13.07;;;3.00;99.90;;;;;;5093657;28;20165;-55
2023/01/20 08:52:21;;;;;;;22.23;12.73;;;3.00;99.90;;;;;;5093602;28;20221;-56
2023/01/20 08:54:51;;;;;;;19.23;12.07;;;3.10;99.90;;;;;;5092804;28;20227;-53
2023/01/20 08:57:16;;;;;;;19.50;11.55;;;2.90;99.90;;;;;;5093178;28;20173;-54
2023/01/20 08:59:43;;;;;;;21.10;11.88;;;3.00;99.90;;;;;;5092440;28;20656;-56
2023/01/20 09:02:09;;;;;;;19.27;11.77;;;3.00;99.90;;;;;;5093085;28;20587;-54
2023/01/20 09:04:36;;;;;;;23.97;11.13;;;3.10;99.90;;;;;;5093406;28;20215;-55
2023/01/20 09:07:02;;;;;;;24.70;12.15;;;3.20;99.90;;;;;;5093374;28;20177;-52
2023/01/20 09:09:28;;;;;;;22.40;12.00;;;3.30;99.90;;;;;;5093391;28;20573;-54
2023/01/20 09:11:54;;;;;;;21.83;11.90;;;3.40;99.90;;;;;;5075002;28;20273;-55
2023/01/20 09:14:22;;;;;;;21.55;12.43;;;3.40;99.90;;;;;;5093639;28;20273;-53
2023/01/20 09:16:48;;;;;;;18.70;11.70;;;3.40;99.90;;;;;;5093394;28;20177;-54
2023/01/20 09:19:13;;;;;;;21.33;11.88;;;3.40;99.90;;;;;;5093289;28;20178;-54
2023/01/20 09:21:39;;;;;;;20.20;12.18;;;3.40;99.90;;;;;;5093486;28;20542;-54
2023/01/20 09:24:05;;;;;;;20.33;10.73;;;3.50;99.90;;;;;;5093233;28;20177;-54
2023/01/20 09:26:37;;;;;;;20.10;11.32;;;3.60;99.90;;;;;;5093147;28;20178;-54
2023/01/20 09:29:07;;;;;;;17.77;10.63;;;3.70;99.90;;;;;;5093271;28;20182;-54
2023/01/20 09:31:34;;;;;;;21.83;11.18;;;3.70;99.90;;;;;;5093063;28;20220;-55
2023/01/20 09:34:00;;;;;;;16.37;10.77;;;3.70;99.90;;;;;;5093122;28;20173;-54
2023/01/20 09:36:29;;;;;;;18.60;11.07;;;3.70;99.90;;;;;;5093162;28;20177;-56
2023/01/20 09:44:45;;;;;;;16.73;10.57;;;3.90;99.90;;;;;;5093400;28;20228;-54
2023/01/20 09:47:38;;;;;;;15.07;10.13;;;3.90;99.90;;;;;;5093002;28;20196;-54
2023/01/20 09:53:31;;;;;;;20.90;10.35;;;4.00;99.90;;;;;;5093145;28;20193;-54
2023/01/20 09:56:01;;;;;;;15.68;10.52;;;4.30;99.90;;;;;;5093103;28;20220;-55
2023/01/20 09:58:40;;;;;;;15.75;10.48;;;4.50;99.90;;;;;;5093121;28;20177;-54
2023/01/20 10:01:14;;;;;;;22.00;9.93;;;4.70;99.90;;;;;;5092799;28;20538;-56
2023/01/20 10:04:04;;;;;;;14.85;9.38;;;4.60;99.90;;;;;;5092716;28;20176;-55
2023/01/20 10:06:44;;;;;;;17.27;9.98;;;4.80;99.90;;;;;;5093538;28;20184;-57
2023/01/20 10:09:23;;;;;;;14.40;6.57;;;4.60;99.90;;;;;;5096708;28;20177;-55
2023/01/20 10:11:54;;;;;;;17.08;9.30;;;4.60;99.90;;;;;;5096540;28;20657;-55
2023/01/20 10:14:31;;;;;;;19.15;9.15;;;4.50;99.90;;;;;;5096829;28;20197;-57
2023/01/20 10:17:11;;;;;;;17.90;8.82;;;4.60;99.90;;;;;;5096896;28;20204;-55
2023/01/20 10:19:44;;;;;;;15.25;8.27;;;4.60;99.90;;;;;;5096786;28;20634;-56
2023/01/20 10:22:37;;;;;;;14.20;8.65;;;4.50;99.90;;;;;;5096440;28;20532;-54
2023/01/20 10:25:06;;;;;;;15.88;8.30;;;4.30;99.90;;;;;;5096899;28;20222;-54
2023/01/20 10:27:35;;;;;;;15.68;8.25;;;4.40;99.90;;;;;;5096412;28;20684;-56
2023/01/20 10:30:14;;;;;;;18.20;8.68;;;4.30;99.90;;;;;;5096452;28;20542;-54
2023/01/20 10:33:01;;;;;;;17.65;9.70;;;4.40;99.90;;;;;;5096027;28;20205;-56
2023/01/20 10:35:29;;;;;;;14.05;9.05;;;4.40;99.90;;;;;;5096359;28;20635;-55
2023/01/20 10:37:57;;;;;;;15.32;8.93;;;4.50;99.90;;;;;;5096045;28;20195;-55
2023/01/20 10:40:22;;;;;;;16.73;9.60;;;4.60;99.90;;;;;;5096099;28;20177;-55
2023/01/20 10:42:53;;;;;;;19.48;10.00;;;4.80;99.90;;;;;;5095859;28;20199;-55
2023/01/20 10:45:32;;;;;;;15.18;9.90;;;5.10;99.90;;;;;;5096054;28;20177;-55
2023/01/20 10:48:03;;;;;;;15.70;9.82;;;5.30;99.90;;;;;;5096280;28;20169;-56
2023/01/20 10:50:34;;;;;;;18.08;9.88;;;5.40;99.90;;;;;;5095916;28;20174;-54
2023/01/20 10:53:46;;;;;;;16.63;9.57;;;5.50;99.90;;;;;;5095705;28;20168;-58
2023/01/20 10:56:33;;;;;;;15.45;9.45;;;5.80;99.90;;;;;;5095991;28;20177;-55
2023/01/20 10:59:06;;;;;;;15.95;8.50;;;6.10;99.90;;;;;;5095746;28;20257;-56
2023/01/20 11:01:33;;;;;;;16.13;8.13;;;6.30;99.90;;;;;;5095645;28;20176;-56
2023/01/20 11:03:59;;;;;;;14.40;8.57;;;6.50;99.90;;;;;;5095463;28;20193;-57
2023/01/20 11:06:26;;;;;;;15.15;7.60;;;6.60;99.90;;;;;;5095736;28;20539;-56
2023/01/20 11:08:53;;;;;;;10.95;7.05;;;6.70;99.90;;;;;;5095552;28;20174;-55
2023/01/20 11:11:22;;;;;;;12.63;6.68;;;6.80;99.90;;;;;;5095433;28;20296;-55
2023/01/20 11:13:50;;;;;;;11.77;6.38;;;6.80;99.90;;;;;;5095548;28;20181;-56
2023/01/20 11:16:27;;;;;;;13.55;6.20;;;6.60;99.90;;;;;;5095213;28;20622;-57
2023/01/20 11:19:04;;;;;;;11.45;6.20;;;6.50;99.90;;;;;;5094457;28;20176;-56
2023/01/20 11:21:34;;;;;;;9.65;5.75;;;6.40;99.90;;;;;;5095282;28;20176;-56
2023/01/20 11:24:00;;;;;;;11.27;6.25;;;6.20;99.90;;;;;;5095253;28;20554;-56
2023/01/20 11:26:31;;;;;;;11.77;6.43;;;6.10;99.90;;;;;;5095088;28;20267;-56
2023/01/20 11:28:59;;;;;;;12.35;6.35;;;6.30;99.90;;;;;;5095225;28;20681;-55
2023/01/20 11:31:40;;;;;;;11.10;6.53;;;6.20;99.90;;;;;;5094828;28;20212;-55
2023/01/20 11:34:28;;;;;;;11.70;6.63;;;6.20;99.90;;;;;;5095057;28;20170;-56
2023/01/20 11:37:05;;;;;;;12.80;6.13;;;6.00;99.90;;;;;;5094960;28;20508;-57
2023/01/20 11:39:49;;;;;;;12.77;7.10;;;6.10;99.90;;;;;;5094731;28;20623;-56
2023/01/20 11:42:21;;;;;;;12.23;5.53;;;6.10;99.90;;;;;;5094944;28;20188;-55
2023/01/20 11:44:49;;;;;;;4.15;3.13;;;5.80;99.90;;;;;;5095161;28;20189;-55
2023/01/20 11:47:28;;;;;;;4.13;2.70;;;5.50;99.90;;;;;;5094716;28;20166;-55
2023/01/20 11:50:17;;;;;;;3.33;2.50;;;5.20;99.90;;;;;;5094587;28;20164;-55
2023/01/20 11:52:45;;;;;;;2.47;2.20;;;4.90;99.90;;;;;;5094961;28;20205;-54
2023/01/20 11:55:11;;;;;;;6.57;3.40;;;4.80;99.90;;;;;;5094747;28;20661;-55
2023/01/20 11:57:45;;;;;;;7.28;5.25;;;4.90;99.90;;;;;;5094589;28;20169;-54
2023/01/20 12:00:28;;;;;;;5.82;3.97;;;5.00;99.90;;;;;;5094469;28;20180;-55
2023/01/20 12:03:20;;;;;;;7.28;5.43;;;5.00;99.90;;;;;;5094536;28;20195;-55
2023/01/20 12:06:09;;;;;;;6.18;5.32;;;5.10;99.90;;;;;;5094552;28;20181;-57
2023/01/20 12:08:47;;;;;;;4.78;3.20;;;5.20;99.90;;;;;;5094590;28;20180;-56
2023/01/20 12:11:19;;;;;;;3.55;2.30;;;4.80;99.90;;;;;;5094294;28;20208;-56
2023/01/20 12:16:44;;;;;;;3.88;2.55;;;4.80;99.90;;;;;;5094588;28;20254;-54
2023/01/20 12:19:16;;;;;;;4.00;3.22;;;4.80;99.90;;;;;;5093962;28;20165;-55
2023/01/20 12:21:48;;;;;;;13.85;12.65;;;4.70;99.90;;;;;;5094309;28;20177;-54
2023/01/20 12:27:30;;;;;;;7.78;3.00;;;4.90;99.90;;;;;;5093966;28;20184;-56
2023/01/20 12:30:03;;;;;;;4.88;2.80;;;5.00;99.90;;;;;;5093962;28;20172;-54
2023/01/20 12:32:30;;;;;;;6.03;3.40;;;5.10;99.90;;;;;;5093767;28;20211;-54
2023/01/20 12:34:56;;;;;;;6.30;3.63;;;5.20;99.90;;;;;;5093809;28;20244;-57
2023/01/20 12:37:47;;;;;;;4.85;3.50;;;5.30;99.90;;;;;;5094125;28;20184;-54
2023/01/20 12:40:39;;;;;;;33.05;23.17;;;5.50;99.90;;;;;;5093761;28;20188;-54
2023/01/20 12:43:17;;;;;;;39.83;26.15;;;5.70;99.90;;;;;;5093221;28;20193;-53
2023/01/20 12:46:10;;;;;;;16.65;11.30;;;5.80;99.90;;;;;;5093800;28;20172;-54
2023/01/20 12:49:00;;;;;;;5.53;5.03;;;5.90;99.90;;;;;;5093839;28;20185;-52
2023/01/20 12:51:43;;;;;;;5.65;4.03;;;5.90;99.90;;;;;;5093652;28;20200;-54
2023/01/20 12:54:56;;;;;;;6.05;4.13;;;5.90;99.90;;;;;;5093473;28;20173;-54
2023/01/20 12:57:42;;;;;;;5.80;4.15;;;6.00;99.90;;;;;;5065793;28;20220;-55
2023/01/20 13:00:29;;;;;;;4.95;4.13;;;6.10;99.90;;;;;;5093517;28;20181;-56
2023/01/20 13:03:25;;;;;;;5.53;3.92;;;6.20;99.90;;;;;;5093401;28;20638;-54
2023/01/20 13:05:50;;;;;;;10.23;5.38;;;6.30;99.90;;;;;;5093575;28;20633;-54
2023/01/20 13:08:43;;;;;;;9.85;3.70;;;6.30;99.90;;;;;;5093376;28;20169;-58
2023/01/20 13:11:51;;;;;;;5.97;2.25;;;6.30;99.90;;;;;;5093364;28;20197;-54
2023/01/20 13:14:22;;;;;;;4.82;1.80;;;6.40;99.90;;;;;;5059302;28;20185;-58